Atalandi — SVBA — position and weather

sailwx.info

Track history (hours):
 
Tides and Currents Weather Stations Pressure Air Temp Water Temp Dewpoint Dewpoint Depression Visibility Wind Speed Wind Dir Waves Ship Positions

Atalandi

Last reported at 2015-Feb-21 10:10 UTC. Time now 2015-Mar-06 16:03 UTC.
Position N 54°26' E 004°45'.
Warning: this ship's position is 13 days out of date.

Length 248 m; draft 8.5 m.

Type: Tanker. MMSI: 240269000.

Date/timePositionNaut miles runAvg speedWind from/ knotsBaromVisibWave heightAir tempDewpointWater temp
2015-Feb-21 10:10N 54°26' E 004°45'1810.7
2015-Feb-21 08:32N 54°10' E 004°54'1111.2
2015-Feb-21 07:33N 53°59' E 004°55'1211.5
2015-Feb-21 06:31N 53°47' E 004°56'1212.0
2015-Feb-21 05:33N 53°36' E 004°49'1212.2
2015-Feb-21 04:33N 53°25' E 004°41'1211.6
2015-Feb-21 03:33N 53°14' E 004°34'1111.2
2015-Feb-21 02:33N 53°04' E 004°26'1110.7
2015-Feb-21 01:30N 52°54' E 004°17'1110.3
2015-Feb-21 00:24N 52°44' E 004°08'910.2
2015-Feb-20 23:32N 52°37' E 003°60'1010.1
2015-Feb-20 22:33N 52°28' E 003°54'1010.0
2015-Feb-20 21:33N 52°18' E 003°58'1110.9
2015-Feb-20 20:33N 52°10' E 004°11'3 2.7
2015-Feb-20 19:33N 52°08' E 004°09'1312.6
2015-Feb-20 18:33N 52°06' E 003°49'3 3.5
2015-Feb-20 17:33N 52°07' E 003°43'1 0.6
2015-Feb-20 16:31N 52°08' E 003°44'0 0.0
2015-Feb-20 15:25N 52°08' E 003°44'0 0.0
2015-Feb-20 14:31N 52°08' E 003°44'0 0.0
2015-Feb-20 13:28N 52°08' E 003°44'0 0.0
2015-Feb-20 12:31N 52°08' E 003°44'0 0.2
2015-Feb-20 11:31N 52°07' E 003°44'0 0.0
2015-Feb-20 10:22N 52°07' E 003°44'0 0.1
2015-Feb-20 09:19N 52°07' E 003°44'0 0.1
2015-Feb-20 08:04N 52°08' E 003°44'0 0.1
2015-Feb-20 07:31N 52°08' E 003°44'0 0.0
2015-Feb-20 06:31N 52°08' E 003°44'0 0.1
2015-Feb-20 05:28N 52°08' E 003°44'0 0.0
2015-Feb-20 04:31N 52°08' E 003°44'0 0.0
2015-Feb-20 03:31N 52°08' E 003°44'0 0.1
2015-Feb-20 02:31N 52°08' E 003°44'0 0.0
2015-Feb-20 01:31N 52°08' E 003°44'0 0.1
2015-Feb-20 00:31N 52°08' E 003°44'0 0.0
2015-Feb-19 23:31N 52°08' E 003°44'0 0.0
2015-Feb-19 22:31N 52°08' E 003°44'0 0.1
2015-Feb-19 21:28N 52°08' E 003°44'0 0.0
2015-Feb-19 20:31N 52°08' E 003°44'0 0.0
2015-Feb-19 19:31N 52°08' E 003°44'0 0.1
2015-Feb-19 18:31N 52°08' E 003°44'0 0.1
2015-Feb-19 17:31N 52°08' E 003°44'0 0.0
2015-Feb-19 16:28N 52°08' E 003°44'0 0.0
2015-Feb-19 15:16N 52°08' E 003°44'1 1.0
2015-Feb-19 14:33N 52°08' E 003°45'10 9.7
2015-Feb-19 13:33N 52°02' E 003°57'9 9.2
2015-Feb-19 12:33N 51°57' E 004°09'1 0.5
2015-Feb-19 11:33N 51°56' E 004°10'0 0.0
2015-Feb-19 10:33N 51°56' E 004°10'0 0.0
2015-Feb-19 09:33N 51°56' E 004°10'0 0.0
2015-Feb-19 08:33N 51°56' E 004°10'0 0.0
2015-Feb-19 07:33N 51°56' E 004°10'0 0.0
2015-Feb-19 06:33N 51°56' E 004°10'0 0.0
2015-Feb-19 05:33N 51°56' E 004°10'0 0.0
2015-Feb-19 04:33N 51°56' E 004°10'0 0.0
2015-Feb-19 03:33N 51°56' E 004°10'0 0.0
2015-Feb-19 02:33N 51°56' E 004°10'0 0.0
2015-Feb-19 01:30N 51°56' E 004°10'0 0.0
2015-Feb-19 00:33N 51°56' E 004°10'0 0.0
2015-Feb-18 23:33N 51°56' E 004°10'0 0.0
2015-Feb-18 22:33N 51°56' E 004°10'0 0.0
2015-Feb-18 21:33N 51°56' E 004°10'0 0.0
2015-Feb-18 20:33N 51°56' E 004°10'0 0.0
2015-Feb-18 19:33N 51°56' E 004°10'0 0.0
2015-Feb-18 18:30N 51°56' E 004°10'0 0.0
2015-Feb-18 17:33N 51°56' E 004°10'0 0.0
2015-Feb-18 16:30N 51°56' E 004°10'0 0.0
2015-Feb-18 15:33N 51°56' E 004°10'0 0.0
2015-Feb-18 14:33N 51°56' E 004°10'0 0.0
2015-Feb-18 13:33N 51°56' E 004°10'0 0.0
2015-Feb-18 12:33N 51°56' E 004°10'0 0.0
2015-Feb-18 11:33N 51°56' E 004°10'0 0.0
2015-Feb-18 10:33N 51°56' E 004°10'0 0.0
2015-Feb-18 09:33N 51°56' E 004°10'0 0.0
2015-Feb-18 08:33N 51°56' E 004°10'0 0.0
2015-Feb-18 07:33N 51°56' E 004°10'0 0.0
2015-Feb-18 06:33N 51°56' E 004°10'0 0.0
2015-Feb-18 05:33N 51°56' E 004°10'0 0.0
2015-Feb-18 04:33N 51°56' E 004°10'0 0.0
2015-Feb-18 03:30N 51°56' E 004°10'0 0.0
2015-Feb-18 02:33N 51°56' E 004°10'0 0.0
2015-Feb-18 01:33N 51°56' E 004°10'0 0.0
2015-Feb-18 00:33N 51°56' E 004°10'0 0.0
2015-Feb-17 23:33N 51°56' E 004°10'0 0.0
2015-Feb-17 22:33N 51°56' E 004°10'0 0.0
2015-Feb-17 21:33N 51°56' E 004°10'0 0.0
2015-Feb-17 20:33N 51°56' E 004°10'0 0.0
2015-Feb-17 19:33N 51°56' E 004°10'6 2.8
2015-Feb-17 17:33N 51°60' E 004°02'9 9.3
2015-Feb-17 16:34N 52°01' E 003°47'6 5.6
2015-Feb-17 15:33N 51°58' E 003°40'1111.1
2015-Feb-17 14:32N 51°55' E 003°22'1413.9
2015-Feb-17 13:34N 51°53' E 003°00'2813.9
2015-Feb-17 11:34N 51°36' E 002°24'1414.5
2015-Feb-17 10:33N 51°25' E 002°09'1313.0
2015-Feb-17 09:34N 51°13' E 002°01'1413.9
2015-Feb-17 08:34N 51°05' E 001°43'1312.7
2015-Feb-17 07:33N 50°56' E 001°29'1010.3
2015-Feb-17 06:33N 50°46' E 001°24'35 8.7
2015-Feb-17 02:32N 50°26' E 000°39'10 9.3
2015-Feb-17 01:25N 50°23' E 000°24'  
Track history (hours):
 
Tides and Currents Weather Stations Pressure Air Temp Water Temp Dewpoint Dewpoint Depression Visibility Wind Speed Wind Dir Waves Ship Positions

Atalandi

Last reported at 2015-Feb-21 10:10 UTC. Time now 2015-Mar-06 16:03 UTC.
Position N 54°26' E 004°45'.
Warning: this ship's position is 13 days out of date.

Length 248 m; draft 8.5 m.

Type: Tanker. MMSI: 240269000.

Date/timePositionNaut miles runAvg speedWind from/ knotsBaromVisibWave heightAir tempDewpointWater temp
2015-Feb-21 10:10N 54°26' E 004°45'1810.7
2015-Feb-21 08:32N 54°10' E 004°54'1111.2
2015-Feb-21 07:33N 53°59' E 004°55'1211.5
2015-Feb-21 06:31N 53°47' E 004°56'1212.0
2015-Feb-21 05:33N 53°36' E 004°49'1212.2
2015-Feb-21 04:33N 53°25' E 004°41'1211.6
2015-Feb-21 03:33N 53°14' E 004°34'1111.2
2015-Feb-21 02:33N 53°04' E 004°26'1110.7
2015-Feb-21 01:30N 52°54' E 004°17'1110.3
2015-Feb-21 00:24N 52°44' E 004°08'910.2
2015-Feb-20 23:32N 52°37' E 003°60'1010.1
2015-Feb-20 22:33N 52°28' E 003°54'1010.0
2015-Feb-20 21:33N 52°18' E 003°58'1110.9
2015-Feb-20 20:33N 52°10' E 004°11'3 2.7
2015-Feb-20 19:33N 52°08' E 004°09'1312.6
2015-Feb-20 18:33N 52°06' E 003°49'3 3.5
2015-Feb-20 17:33N 52°07' E 003°43'1 0.6
2015-Feb-20 16:31N 52°08' E 003°44'0 0.0
2015-Feb-20 15:25N 52°08' E 003°44'0 0.0
2015-Feb-20 14:31N 52°08' E 003°44'0 0.0
2015-Feb-20 13:28N 52°08' E 003°44'0 0.0
2015-Feb-20 12:31N 52°08' E 003°44'0 0.2
2015-Feb-20 11:31N 52°07' E 003°44'0 0.0
2015-Feb-20 10:22N 52°07' E 003°44'0 0.1
2015-Feb-20 09:19N 52°07' E 003°44'0 0.1
2015-Feb-20 08:04N 52°08' E 003°44'0 0.1
2015-Feb-20 07:31N 52°08' E 003°44'0 0.0
2015-Feb-20 06:31N 52°08' E 003°44'0 0.1
2015-Feb-20 05:28N 52°08' E 003°44'0 0.0
2015-Feb-20 04:31N 52°08' E 003°44'0 0.0
2015-Feb-20 03:31N 52°08' E 003°44'0 0.1
2015-Feb-20 02:31N 52°08' E 003°44'0 0.0
2015-Feb-20 01:31N 52°08' E 003°44'0 0.1
2015-Feb-20 00:31N 52°08' E 003°44'0 0.0
2015-Feb-19 23:31N 52°08' E 003°44'0 0.0
2015-Feb-19 22:31N 52°08' E 003°44'0 0.1
2015-Feb-19 21:28N 52°08' E 003°44'0 0.0
2015-Feb-19 20:31N 52°08' E 003°44'0 0.0
2015-Feb-19 19:31N 52°08' E 003°44'0 0.1
2015-Feb-19 18:31N 52°08' E 003°44'0 0.1
2015-Feb-19 17:31N 52°08' E 003°44'0 0.0
2015-Feb-19 16:28N 52°08' E 003°44'0 0.0
2015-Feb-19 15:16N 52°08' E 003°44'1 1.0
2015-Feb-19 14:33N 52°08' E 003°45'10 9.7
2015-Feb-19 13:33N 52°02' E 003°57'9 9.2
2015-Feb-19 12:33N 51°57' E 004°09'1 0.5
2015-Feb-19 11:33N 51°56' E 004°10'0 0.0
2015-Feb-19 10:33N 51°56' E 004°10'0 0.0
2015-Feb-19 09:33N 51°56' E 004°10'0 0.0
2015-Feb-19 08:33N 51°56' E 004°10'0 0.0
2015-Feb-19 07:33N 51°56' E 004°10'0 0.0
2015-Feb-19 06:33N 51°56' E 004°10'0 0.0
2015-Feb-19 05:33N 51°56' E 004°10'0 0.0
2015-Feb-19 04:33N 51°56' E 004°10'0 0.0
2015-Feb-19 03:33N 51°56' E 004°10'0 0.0
2015-Feb-19 02:33N 51°56' E 004°10'0 0.0
2015-Feb-19 01:30N 51°56' E 004°10'0 0.0
2015-Feb-19 00:33N 51°56' E 004°10'0 0.0
2015-Feb-18 23:33N 51°56' E 004°10'0 0.0
2015-Feb-18 22:33N 51°56' E 004°10'0 0.0
2015-Feb-18 21:33N 51°56' E 004°10'0 0.0
2015-Feb-18 20:33N 51°56' E 004°10'0 0.0
2015-Feb-18 19:33N 51°56' E 004°10'0 0.0
2015-Feb-18 18:30N 51°56' E 004°10'0 0.0
2015-Feb-18 17:33N 51°56' E 004°10'0 0.0
2015-Feb-18 16:30N 51°56' E 004°10'0 0.0
2015-Feb-18 15:33N 51°56' E 004°10'0 0.0
2015-Feb-18 14:33N 51°56' E 004°10'0 0.0
2015-Feb-18 13:33N 51°56' E 004°10'0 0.0
2015-Feb-18 12:33N 51°56' E 004°10'0 0.0
2015-Feb-18 11:33N 51°56' E 004°10'0 0.0
2015-Feb-18 10:33N 51°56' E 004°10'0 0.0
2015-Feb-18 09:33N 51°56' E 004°10'0 0.0
2015-Feb-18 08:33N 51°56' E 004°10'0 0.0
2015-Feb-18 07:33N 51°56' E 004°10'0 0.0
2015-Feb-18 06:33N 51°56' E 004°10'0 0.0
2015-Feb-18 05:33N 51°56' E 004°10'0 0.0
2015-Feb-18 04:33N 51°56' E 004°10'0 0.0
2015-Feb-18 03:30N 51°56' E 004°10'0 0.0
2015-Feb-18 02:33N 51°56' E 004°10'0 0.0
2015-Feb-18 01:33N 51°56' E 004°10'0 0.0
2015-Feb-18 00:33N 51°56' E 004°10'0 0.0
2015-Feb-17 23:33N 51°56' E 004°10'0 0.0
2015-Feb-17 22:33N 51°56' E 004°10'0 0.0
2015-Feb-17 21:33N 51°56' E 004°10'0 0.0
2015-Feb-17 20:33N 51°56' E 004°10'0 0.0
2015-Feb-17 19:33N 51°56' E 004°10'6 2.8
2015-Feb-17 17:33N 51°60' E 004°02'9 9.3
2015-Feb-17 16:34N 52°01' E 003°47'6 5.6
2015-Feb-17 15:33N 51°58' E 003°40'1111.1
2015-Feb-17 14:32N 51°55' E 003°22'1413.9
2015-Feb-17 13:34N 51°53' E 003°00'2813.9
2015-Feb-17 11:34N 51°36' E 002°24'1414.5
2015-Feb-17 10:33N 51°25' E 002°09'1313.0
2015-Feb-17 09:34N 51°13' E 002°01'1413.9
2015-Feb-17 08:34N 51°05' E 001°43'1312.7
2015-Feb-17 07:33N 50°56' E 001°29'1010.3
2015-Feb-17 06:33N 50°46' E 001°24'35 8.7
2015-Feb-17 02:32N 50°26' E 000°39'10 9.3
2015-Feb-17 01:25N 50°23' E 000°24'  

Dump ship's entire track history